createdAt,value
2019-05-10T00:00:43.462Z,0.00
2019-05-10T00:01:43.466Z,0.00
2019-05-10T00:02:43.431Z,0.00
2019-05-10T00:03:43.429Z,0.00
2019-05-10T00:04:43.413Z,0.00
2019-05-10T00:05:43.404Z,0.00
2019-05-10T00:06:43.650Z,0.00
2019-05-10T00:07:43.396Z,0.00
2019-05-10T00:08:43.388Z,0.00
2019-05-10T00:09:43.356Z,0.00
2019-05-10T00:10:43.358Z,0.00
2019-05-10T00:11:43.334Z,0.00
2019-05-10T00:12:43.357Z,0.00
2019-05-10T00:13:43.315Z,0.00
2019-05-10T00:14:43.305Z,0.00
2019-05-10T00:15:43.301Z,0.00
2019-05-10T00:16:43.284Z,0.00
2019-05-10T00:17:43.273Z,0.00
2019-05-10T00:18:43.324Z,0.00
2019-05-10T00:19:43.253Z,0.00
2019-05-10T00:20:43.239Z,0.00
2019-05-10T00:21:43.230Z,0.00
2019-05-10T00:22:43.234Z,0.00
2019-05-10T00:23:43.224Z,0.00
2019-05-10T00:24:43.215Z,0.00
2019-05-10T00:25:43.179Z,0.00
2019-05-10T00:26:43.176Z,0.00
2019-05-10T00:27:43.187Z,0.00
2019-05-10T00:28:43.150Z,0.00
2019-05-10T00:29:43.156Z,0.00
2019-05-10T00:30:43.129Z,0.00
2019-05-10T00:31:43.114Z,0.00
2019-05-10T00:32:43.106Z,0.00
2019-05-10T00:33:43.113Z,0.00
2019-05-10T00:34:43.108Z,0.00
2019-05-10T00:35:43.093Z,0.00
2019-05-10T00:36:43.072Z,0.00
2019-05-10T00:37:43.050Z,0.00
2019-05-10T00:38:43.042Z,0.00
2019-05-10T00:39:43.106Z,0.00
2019-05-10T00:40:43.021Z,0.00
2019-05-10T00:41:43.035Z,0.00
2019-05-10T00:42:43.036Z,0.00
2019-05-10T00:43:42.998Z,0.00
2019-05-10T00:44:42.998Z,0.00
2019-05-10T00:45:43.004Z,0.00
2019-05-10T00:46:42.962Z,0.00
2019-05-10T00:47:42.970Z,0.00
2019-05-10T00:48:42.957Z,0.00
2019-05-10T00:49:42.921Z,0.00
2019-05-10T00:50:42.917Z,0.00
2019-05-10T00:51:42.919Z,0.00
2019-05-10T00:52:42.902Z,0.00
2019-05-10T00:53:42.900Z,0.00
2019-05-10T00:54:42.863Z,0.00
2019-05-10T00:55:42.861Z,0.00
2019-05-10T00:56:42.864Z,0.00
2019-05-10T00:57:42.837Z,0.00
2019-05-10T00:58:42.842Z,0.00
2019-05-10T00:59:42.824Z,0.00
2019-05-10T01:00:42.800Z,0.00
2019-05-10T01:01:42.795Z,0.00
2019-05-10T01:02:42.793Z,0.00
2019-05-10T01:03:42.771Z,0.00
2019-05-10T01:04:42.770Z,0.00
2019-05-10T01:05:42.754Z,0.00
2019-05-10T01:06:42.733Z,0.00
2019-05-10T01:07:42.746Z,0.00
2019-05-10T01:08:42.714Z,0.00
2019-05-10T01:09:42.708Z,0.00
2019-05-10T01:10:42.701Z,0.00
2019-05-10T01:11:42.687Z,0.00
2019-05-10T01:12:42.712Z,0.00
2019-05-10T01:13:42.665Z,0.00
2019-05-10T01:14:42.643Z,0.00
2019-05-10T01:15:42.646Z,0.00
2019-05-10T01:16:42.634Z,0.00
2019-05-10T01:17:42.615Z,0.00
2019-05-10T01:18:42.978Z,0.00
2019-05-10T01:19:42.597Z,0.00
2019-05-10T01:20:42.582Z,0.00
2019-05-10T01:21:42.576Z,0.00
2019-05-10T01:22:42.562Z,0.00
2019-05-10T01:23:42.547Z,0.00
2019-05-10T01:24:42.577Z,0.00
2019-05-10T01:25:42.537Z,0.00
2019-05-10T01:26:42.519Z,0.00
2019-05-10T01:27:42.511Z,0.00
2019-05-10T01:28:42.493Z,0.00
2019-05-10T01:29:42.483Z,0.00
2019-05-10T01:30:42.485Z,0.00
2019-05-10T01:31:42.456Z,0.00
2019-05-10T01:32:42.453Z,0.00
2019-05-10T01:33:42.449Z,0.00
2019-05-10T01:34:42.444Z,0.00
2019-05-10T01:35:42.430Z,0.00
2019-05-10T01:36:42.422Z,0.00
2019-05-10T01:37:42.410Z,0.00
2019-05-10T01:38:42.382Z,0.00
2019-05-10T01:39:42.378Z,0.00
2019-05-10T01:40:42.386Z,0.00
2019-05-10T01:41:42.364Z,0.00
2019-05-10T01:42:42.352Z,0.00
2019-05-10T01:43:42.330Z,0.00
2019-05-10T01:44:42.341Z,0.00
2019-05-10T01:45:42.335Z,0.00
2019-05-10T01:46:42.301Z,0.00
2019-05-10T01:47:42.294Z,0.00
2019-05-10T01:48:42.299Z,0.00
2019-05-10T01:49:42.271Z,0.00
2019-05-10T01:50:43.280Z,0.00
2019-05-10T01:51:42.259Z,0.00
2019-05-10T01:52:42.235Z,0.00
2019-05-10T01:53:42.245Z,0.00
2019-05-10T01:54:42.214Z,0.00
2019-05-10T01:55:51.444Z,0.00
2019-05-10T01:56:43.210Z,0.00
2019-05-10T01:57:42.196Z,0.00
2019-05-10T01:58:42.202Z,0.00
2019-05-10T01:59:42.163Z,0.00
2019-05-10T02:00:42.154Z,0.00
2019-05-10T02:01:42.146Z,0.00
2019-05-10T02:02:42.132Z,0.00
2019-05-10T02:03:42.109Z,0.00
2019-05-10T02:04:42.108Z,0.00
2019-05-10T02:05:42.110Z,0.00
2019-05-10T02:06:42.086Z,0.00
2019-05-10T02:07:42.078Z,0.00
2019-05-10T02:08:42.087Z,0.00
2019-05-10T02:09:42.063Z,0.00
2019-05-10T02:10:42.041Z,0.00
2019-05-10T02:11:42.038Z,0.00
2019-05-10T02:12:42.143Z,0.00
2019-05-10T02:13:42.003Z,0.00
2019-05-10T02:14:42.025Z,0.00
2019-05-10T02:15:42.040Z,0.00
2019-05-10T02:16:41.969Z,0.00
2019-05-10T02:17:41.987Z,0.00
2019-05-10T02:18:41.947Z,0.00
2019-05-10T02:19:41.957Z,0.00
2019-05-10T02:20:41.937Z,0.00
2019-05-10T02:21:41.924Z,0.00
2019-05-10T02:22:41.923Z,0.00
2019-05-10T02:23:41.902Z,0.00
2019-05-10T02:24:41.919Z,0.00
2019-05-10T02:25:41.876Z,0.00
2019-05-10T02:26:41.871Z,0.00
2019-05-10T02:27:41.847Z,0.00
2019-05-10T02:28:41.848Z,0.00
2019-05-10T02:29:41.840Z,0.00
2019-05-10T02:30:41.848Z,0.00
2019-05-10T02:31:41.816Z,0.00
2019-05-10T02:32:41.811Z,0.00
2019-05-10T02:33:41.786Z,0.00
2019-05-10T02:34:41.798Z,0.00
2019-05-10T02:35:41.812Z,0.00
2019-05-10T02:36:41.749Z,0.00
2019-05-10T02:37:41.749Z,0.00
2019-05-10T02:38:41.761Z,0.00
2019-05-10T02:39:41.720Z,0.00
2019-05-10T02:40:41.715Z,0.00
2019-05-10T02:41:41.727Z,0.00
2019-05-10T02:42:41.687Z,0.00
2019-05-10T02:43:41.693Z,0.00
2019-05-10T02:44:41.669Z,0.00
2019-05-10T02:45:41.675Z,0.00
2019-05-10T02:46:41.973Z,0.00
2019-05-10T02:47:41.656Z,0.00
2019-05-10T02:48:41.625Z,4.00
2019-05-10T02:49:41.642Z,4.00
2019-05-10T02:50:41.603Z,4.00
2019-05-10T02:51:41.643Z,4.00
2019-05-10T02:52:41.587Z,0.00
2019-05-10T02:53:41.571Z,4.00
2019-05-10T02:54:41.558Z,4.00
2019-05-10T02:55:41.557Z,4.00
2019-05-10T02:56:41.544Z,4.00
2019-05-10T02:57:41.549Z,8.00
2019-05-10T02:58:41.522Z,8.00
2019-05-10T02:59:41.515Z,8.00
2019-05-10T03:00:41.512Z,12.00
2019-05-10T03:01:41.485Z,12.00
2019-05-10T03:02:41.508Z,12.00
2019-05-10T03:03:41.469Z,12.00
2019-05-10T03:04:41.458Z,12.00
2019-05-10T03:05:41.442Z,16.00
2019-05-10T03:06:41.595Z,16.00
2019-05-10T03:07:41.430Z,16.00
2019-05-10T03:08:41.468Z,16.00
2019-05-10T03:09:41.395Z,24.00
2019-05-10T03:10:41.394Z,24.00
2019-05-10T03:11:41.415Z,28.00
2019-05-10T03:12:41.494Z,28.00
2019-05-10T03:13:41.346Z,28.00
2019-05-10T03:14:41.399Z,32.00
2019-05-10T03:15:41.347Z,36.00
2019-05-10T03:16:41.317Z,40.00
2019-05-10T03:17:41.376Z,48.00
2019-05-10T03:18:41.308Z,48.00
2019-05-10T03:19:41.309Z,56.00
2019-05-10T03:20:41.336Z,60.00
2019-05-10T03:21:41.287Z,68.00
2019-05-10T03:22:41.255Z,72.00
2019-05-10T03:23:41.251Z,84.00
2019-05-10T03:24:41.241Z,92.00
2019-05-10T03:25:41.241Z,96.00
2019-05-10T03:26:50.959Z,104.00
2019-05-10T03:27:42.194Z,112.00
2019-05-10T03:28:41.210Z,120.00
2019-05-10T03:29:41.195Z,128.00
2019-05-10T03:30:41.167Z,136.00
2019-05-10T03:31:41.197Z,148.00
2019-05-10T03:32:41.207Z,164.00
2019-05-10T03:33:41.145Z,180.00
2019-05-10T03:34:41.122Z,204.00
2019-05-10T03:35:41.116Z,224.00
2019-05-10T03:36:41.097Z,248.00
2019-05-10T03:37:41.088Z,272.00
2019-05-10T03:38:41.099Z,296.00
2019-05-10T03:39:41.082Z,308.00
2019-05-10T03:40:41.055Z,320.00
2019-05-10T03:41:41.062Z,336.00
2019-05-10T03:42:41.041Z,344.00
2019-05-10T03:43:41.025Z,352.00
2019-05-10T03:44:41.028Z,372.00
2019-05-10T03:45:41.004Z,392.00
2019-05-10T03:46:40.988Z,404.00
2019-05-10T03:47:41.003Z,408.00
2019-05-10T03:48:40.981Z,404.00
2019-05-10T03:49:40.989Z,400.00
2019-05-10T03:50:40.955Z,404.00
2019-05-10T03:51:40.942Z,428.00
2019-05-10T03:52:40.943Z,460.00
2019-05-10T03:53:40.925Z,516.00
2019-05-10T03:54:40.910Z,580.00
2019-05-10T03:55:40.938Z,640.00
2019-05-10T03:56:40.910Z,688.00
2019-05-10T03:57:40.866Z,736.00
2019-05-10T03:58:40.862Z,796.00
2019-05-10T03:59:40.864Z,864.00
2019-05-10T04:00:40.844Z,936.00
2019-05-10T04:01:40.879Z,1000.00
2019-05-10T04:02:40.841Z,1056.00
2019-05-10T04:03:40.809Z,1104.00
2019-05-10T04:04:40.803Z,1152.00
2019-05-10T04:05:40.792Z,1200.00
2019-05-10T04:06:40.772Z,1244.00
2019-05-10T04:07:40.778Z,1296.00
2019-05-10T04:08:40.756Z,1352.00
2019-05-10T04:09:40.751Z,1408.00
2019-05-10T04:10:40.738Z,1472.00
2019-05-10T04:11:40.739Z,1540.00
2019-05-10T04:12:40.703Z,1624.00
2019-05-10T04:13:40.720Z,1716.00
2019-05-10T04:14:40.704Z,1808.00
2019-05-10T04:15:40.669Z,1932.00
2019-05-10T04:16:40.674Z,2036.00
2019-05-10T04:17:40.705Z,2144.00
2019-05-10T04:18:40.891Z,2216.00
2019-05-10T04:19:40.645Z,2260.00
2019-05-10T04:20:40.636Z,2264.00
2019-05-10T04:21:40.609Z,2280.00
2019-05-10T04:22:40.607Z,2276.00
2019-05-10T04:23:40.587Z,2288.00
2019-05-10T04:24:40.621Z,2280.00
2019-05-10T04:25:40.591Z,2236.00
2019-05-10T04:26:40.553Z,2184.00
2019-05-10T04:27:40.548Z,2108.00
2019-05-10T04:28:40.606Z,2004.00
2019-05-10T04:29:40.764Z,1916.00
2019-05-10T04:30:40.532Z,1848.00
2019-05-10T04:31:40.530Z,1808.00
2019-05-10T04:32:40.489Z,1820.00
2019-05-10T04:33:40.493Z,1864.00
2019-05-10T04:34:40.479Z,1892.00
2019-05-10T04:35:40.533Z,1868.00
2019-05-10T04:36:40.458Z,1816.00
2019-05-10T04:37:40.455Z,1776.00
2019-05-10T04:38:40.430Z,1780.00
2019-05-10T04:39:40.425Z,1824.00
2019-05-10T04:40:40.766Z,1904.00
2019-05-10T04:41:40.399Z,1996.00
2019-05-10T04:42:40.414Z,2068.00
2019-05-10T04:43:40.371Z,2120.00
2019-05-10T04:44:40.399Z,2160.00
2019-05-10T04:45:40.362Z,2180.00
2019-05-10T04:46:40.730Z,2176.00
2019-05-10T04:47:40.329Z,2184.00
2019-05-10T04:48:40.319Z,2228.00
2019-05-10T04:49:40.326Z,2280.00
2019-05-10T04:50:40.304Z,2340.00
2019-05-10T04:51:40.302Z,2404.00
2019-05-10T04:52:40.303Z,2480.00
2019-05-10T04:53:40.295Z,2556.00
2019-05-10T04:54:40.265Z,2628.00
2019-05-10T04:55:40.258Z,2672.00
2019-05-10T04:56:40.242Z,2724.00
2019-05-10T04:57:50.058Z,2740.00
2019-05-10T04:58:41.214Z,2788.00
2019-05-10T04:59:40.202Z,2856.00
2019-05-10T05:00:40.193Z,2948.00
2019-05-10T05:01:40.199Z,3064.00
2019-05-10T05:02:40.206Z,3172.00
2019-05-10T05:03:40.176Z,3288.00
2019-05-10T05:04:40.172Z,3392.00
2019-05-10T05:05:40.151Z,3492.00
2019-05-10T05:06:40.165Z,3504.00
2019-05-10T05:07:40.140Z,3456.00
2019-05-10T05:08:40.104Z,3368.00
2019-05-10T05:09:40.106Z,3296.00
2019-05-10T05:10:40.089Z,3300.00
2019-05-10T05:11:40.069Z,3328.00
2019-05-10T05:12:40.103Z,3324.00
2019-05-10T05:13:40.050Z,3340.00
2019-05-10T05:14:40.056Z,3440.00
2019-05-10T05:15:40.733Z,3576.00
2019-05-10T05:16:40.047Z,3700.00
2019-05-10T05:17:39.995Z,3844.00
2019-05-10T05:18:39.992Z,4004.00
2019-05-10T05:19:40.939Z,4204.00
2019-05-10T05:20:39.966Z,4420.00
2019-05-10T05:21:39.958Z,4616.00
2019-05-10T05:22:39.954Z,4788.00
2019-05-10T05:23:39.962Z,4972.00
2019-05-10T05:24:39.935Z,5156.00
2019-05-10T05:25:40.439Z,5308.00
2019-05-10T05:26:39.906Z,5432.00
2019-05-10T05:27:39.882Z,5564.00
2019-05-10T05:28:39.895Z,5648.00
2019-05-10T05:29:39.913Z,5820.00
2019-05-10T05:30:39.854Z,6008.00
2019-05-10T05:31:39.854Z,6204.00
2019-05-10T05:32:44.618Z,6388.00
2019-05-10T05:33:40.873Z,6532.00
2019-05-10T05:34:39.808Z,6668.00
2019-05-10T05:35:39.827Z,6728.00
2019-05-10T05:36:39.792Z,6672.00
2019-05-10T05:37:39.813Z,6536.00
2019-05-10T05:38:40.608Z,6432.00
2019-05-10T05:39:40.743Z,6408.00
2019-05-10T05:40:39.746Z,6480.00
2019-05-10T05:41:49.093Z,6676.00
2019-05-10T05:42:40.711Z,6836.00
2019-05-10T05:43:45.722Z,6888.00
2019-05-10T05:44:40.717Z,6804.00
2019-05-10T05:45:39.735Z,6660.00
2019-05-10T05:46:39.755Z,6536.00
2019-05-10T05:47:42.304Z,6480.00
2019-05-10T05:48:40.758Z,6532.00
2019-05-10T05:49:39.633Z,6700.00
2019-05-10T05:50:39.636Z,7024.00
2019-05-10T05:51:39.634Z,7484.00
2019-05-10T05:52:39.613Z,8084.00
2019-05-10T05:53:42.223Z,8800.00
2019-05-10T05:54:39.583Z,9516.00
2019-05-10T05:55:39.624Z,10172.00
2019-05-10T05:56:44.710Z,10492.00
2019-05-10T05:57:40.548Z,10548.00
2019-05-10T05:58:44.609Z,10584.00
2019-05-10T05:59:40.520Z,10628.00
2019-05-10T06:00:44.551Z,10748.00
2019-05-10T06:01:40.528Z,10980.00
2019-05-10T06:02:44.341Z,11276.00
2019-05-10T06:03:40.500Z,11528.00
2019-05-10T06:04:40.806Z,11692.00
2019-05-10T06:05:40.520Z,11724.00
2019-05-10T06:06:39.458Z,11700.00
2019-05-10T06:07:39.565Z,11636.00
2019-05-10T06:08:39.505Z,11544.00
2019-05-10T06:09:39.522Z,11548.00
2019-05-10T06:10:39.441Z,11552.00
2019-05-10T06:11:39.399Z,11584.00
2019-05-10T06:12:39.383Z,11572.00
2019-05-10T06:13:39.394Z,11576.00
2019-05-10T06:14:43.325Z,11620.00
2019-05-10T06:15:40.347Z,11612.00
2019-05-10T06:16:39.349Z,11520.00
2019-05-10T06:17:39.352Z,11280.00
2019-05-10T06:18:41.748Z,10996.00
2019-05-10T06:19:40.462Z,10792.00
2019-05-10T06:20:44.487Z,10652.00
2019-05-10T06:21:40.316Z,10456.00
2019-05-10T06:22:43.994Z,10200.00
2019-05-10T06:23:40.273Z,10036.00
2019-05-10T06:24:39.260Z,10028.00
2019-05-10T06:25:42.450Z,10232.00
2019-05-10T06:26:39.266Z,10624.00
2019-05-10T06:27:41.203Z,11116.00
2019-05-10T06:29:43.057Z,12144.00
2019-05-10T06:30:39.176Z,12464.00
2019-05-10T06:31:39.216Z,12648.00
2019-05-10T06:32:39.178Z,12888.00
2019-05-10T06:33:39.601Z,13188.00
2019-05-10T06:34:40.343Z,13432.00
2019-05-10T06:35:39.120Z,13504.00
2019-05-10T06:36:39.144Z,13552.00
2019-05-10T06:37:39.164Z,13120.00
2019-05-10T06:38:39.091Z,12716.00
2019-05-10T06:39:39.095Z,12284.00
2019-05-10T06:40:46.716Z,11888.00
2019-05-10T06:41:40.059Z,11500.00
2019-05-10T06:42:39.053Z,11396.00
2019-05-10T06:43:39.075Z,11476.00
2019-05-10T06:44:39.036Z,11728.00
2019-05-10T06:45:39.028Z,12172.00
2019-05-10T06:46:39.011Z,12676.00
2019-05-10T06:47:41.990Z,13096.00
2019-05-10T06:48:40.162Z,13232.00
2019-05-10T06:49:41.766Z,13240.00
2019-05-10T06:50:39.966Z,12868.00
2019-05-10T06:51:42.956Z,12708.00
2019-05-10T06:52:39.977Z,12852.00
2019-05-10T06:53:42.145Z,13144.00
2019-05-10T06:54:39.965Z,13508.00
2019-05-10T06:55:38.904Z,13760.00
2019-05-10T06:56:38.894Z,13956.00
2019-05-10T06:57:38.879Z,14224.00
2019-05-10T06:58:38.880Z,14540.00
2019-05-10T06:59:38.862Z,15000.00
2019-05-10T07:00:44.914Z,15608.00
2019-05-10T07:01:45.846Z,16384.00
2019-05-10T07:02:39.831Z,17024.00
2019-05-10T07:03:38.814Z,17728.00
2019-05-10T07:04:41.129Z,18272.00
2019-05-10T07:05:38.824Z,18880.00
2019-05-10T07:06:38.812Z,23552.00
2019-05-10T07:07:44.573Z,19712.00
2019-05-10T07:08:44.556Z,19520.00
2019-05-10T07:10:01.569Z,19776.00
2019-05-10T07:10:39.745Z,20224.00
2019-05-10T07:11:38.770Z,21440.00
2019-05-10T07:12:38.983Z,22112.00
2019-05-10T07:13:40.343Z,22784.00
2019-05-10T07:14:45.520Z,23456.00
2019-05-10T07:15:42.177Z,25536.00
2019-05-10T07:16:38.678Z,28512.00
2019-05-10T07:17:45.625Z,25056.00
2019-05-10T07:18:39.661Z,25664.00
2019-05-10T07:19:42.145Z,26688.00
2019-05-10T07:20:42.961Z,25792.00
2019-05-10T07:21:39.001Z,23968.00
2019-05-10T07:22:39.677Z,24320.00
2019-05-10T07:23:38.991Z,25632.00
2019-05-10T07:24:39.600Z,27424.00
2019-05-10T07:25:44.008Z,30528.00
2019-05-10T07:26:39.567Z,31712.00
2019-05-10T07:27:38.917Z,51936.00
2019-05-10T07:28:38.585Z,47232.00
2019-05-10T07:29:43.699Z,39296.00
2019-05-10T07:30:41.447Z,28480.00
2019-05-10T07:31:38.508Z,28320.00
2019-05-10T07:32:38.544Z,33824.00
2019-05-10T07:33:40.119Z,40864.00
2019-05-10T07:34:38.502Z,49504.00
2019-05-10T07:35:38.803Z,24800.00
2019-05-10T07:36:38.456Z,23072.00
2019-05-10T07:37:38.443Z,23904.00
2019-05-10T07:38:38.445Z,25280.00
2019-05-10T07:39:38.437Z,24800.00
2019-05-10T07:40:38.418Z,26720.00
2019-05-10T07:41:38.410Z,27456.00
2019-05-10T07:42:39.979Z,27360.00
2019-05-10T07:43:39.388Z,27136.00
2019-05-10T07:44:41.461Z,29856.00
2019-05-10T07:45:39.363Z,35456.00
2019-05-10T07:46:40.053Z,87456.00
2019-05-10T07:47:39.332Z,41728.00
2019-05-10T07:48:41.158Z,24736.00
2019-05-10T07:49:39.311Z,30432.00
2019-05-10T07:50:42.243Z,16352.00
2019-05-10T07:51:39.300Z,13360.00
2019-05-10T07:52:43.335Z,11912.00
2019-05-10T07:53:39.279Z,12416.00
2019-05-10T07:54:45.187Z,13712.00
2019-05-10T07:55:39.264Z,15184.00
2019-05-10T07:56:45.649Z,16576.00
2019-05-10T07:57:38.226Z,17504.00
2019-05-10T07:58:43.250Z,18368.00
2019-05-10T07:59:50.146Z,19296.00
2019-05-10T08:00:44.269Z,20512.00
2019-05-10T08:01:39.175Z,22080.00
2019-05-10T08:02:38.160Z,24032.00
2019-05-10T08:03:44.127Z,26752.00
2019-05-10T08:04:39.144Z,31040.00
2019-05-10T08:05:39.164Z,46560.00
2019-05-10T08:06:44.115Z,48160.00
2019-05-10T08:07:39.112Z,47840.00
2019-05-10T08:08:39.126Z,106016.00
2019-05-10T08:09:44.757Z,69248.00
2019-05-10T08:10:39.464Z,87840.00
2019-05-10T08:11:39.117Z,44544.00
2019-05-10T08:12:41.487Z,39296.00
2019-05-10T08:13:39.440Z,50208.00
2019-05-10T08:14:39.405Z,74016.00
2019-05-10T08:15:38.527Z,106336.00
2019-05-10T08:16:38.736Z,114208.00
2019-05-10T08:17:41.054Z,45088.00
2019-05-10T08:18:42.041Z,101216.00
2019-05-10T08:19:39.041Z,73856.00
2019-05-10T08:20:49.476Z,36064.00
2019-05-10T08:21:38.973Z,36000.00
2019-05-10T08:22:41.450Z,37888.00
2019-05-10T08:23:40.885Z,37504.00
2019-05-10T08:24:37.920Z,93152.00
2019-05-10T08:25:43.936Z,19360.00
2019-05-10T08:26:38.919Z,16608.00
2019-05-10T08:27:44.058Z,18016.00
2019-05-10T08:28:43.844Z,22656.00
2019-05-10T08:29:38.902Z,32576.00
2019-05-10T08:30:42.708Z,28864.00
2019-05-10T08:31:40.817Z,26208.00
2019-05-10T08:32:38.867Z,32160.00
2019-05-10T08:33:37.846Z,63744.00
2019-05-10T08:34:40.252Z,37632.00
2019-05-10T08:35:41.171Z,25312.00
2019-05-10T08:36:43.453Z,21312.00
2019-05-10T08:37:38.792Z,24864.00
2019-05-10T08:38:39.820Z,22784.00
2019-05-10T08:39:45.366Z,20448.00
2019-05-10T08:40:38.763Z,16448.00
2019-05-10T08:41:37.746Z,13276.00
2019-05-10T08:42:45.342Z,10812.00
2019-05-10T08:43:40.159Z,10684.00
2019-05-10T08:44:37.710Z,10224.00
2019-05-10T08:45:38.628Z,9248.00
2019-05-10T08:46:41.471Z,8724.00
2019-05-10T08:47:38.675Z,9796.00
2019-05-10T08:48:38.171Z,11108.00
2019-05-10T08:49:53.808Z,12032.00
2019-05-10T08:50:49.658Z,12940.00
2019-05-10T08:51:43.801Z,13728.00
2019-05-10T08:52:38.623Z,15260.00
2019-05-10T08:53:37.661Z,17664.00
2019-05-10T08:54:37.596Z,18560.00
2019-05-10T08:55:37.594Z,22048.00
2019-05-10T08:56:37.585Z,28736.00
2019-05-10T08:57:44.534Z,35744.00
2019-05-10T08:58:38.598Z,28992.00
2019-05-10T08:59:37.537Z,31040.00
2019-05-10T09:00:49.289Z,58848.00
2019-05-10T09:01:45.443Z,72416.00
2019-05-10T09:02:38.506Z,55040.00
2019-05-10T09:03:37.496Z,36192.00
2019-05-10T09:04:43.766Z,30688.00
2019-05-10T09:05:40.052Z,29984.00
2019-05-10T09:06:37.470Z,26304.00
2019-05-10T09:07:39.091Z,24192.00
2019-05-10T09:08:37.445Z,19200.00
2019-05-10T09:09:45.577Z,16768.00
2019-05-10T09:10:38.421Z,15552.00
2019-05-10T09:11:37.426Z,14740.00
2019-05-10T09:12:44.170Z,15996.00
2019-05-10T09:13:41.446Z,19648.00
2019-05-10T09:14:38.415Z,34976.00
2019-05-10T09:15:43.352Z,86720.00
2019-05-10T09:16:43.403Z,115936.00
2019-05-10T09:17:38.355Z,75104.00
2019-05-10T09:18:38.207Z,28256.00
2019-05-10T09:19:41.679Z,18656.00
2019-05-10T09:20:38.308Z,15316.00
2019-05-10T09:21:41.011Z,14916.00
2019-05-10T09:22:38.786Z,15300.00
2019-05-10T09:23:37.312Z,15956.00
2019-05-10T09:24:43.076Z,16448.00
2019-05-10T09:25:38.268Z,16768.00
2019-05-10T09:26:37.267Z,16672.00
2019-05-10T09:27:37.257Z,17216.00
2019-05-10T09:28:37.219Z,18496.00
2019-05-10T09:29:37.648Z,20768.00
2019-05-10T09:30:37.207Z,27520.00
2019-05-10T09:31:39.475Z,32160.00
2019-05-10T09:32:39.925Z,27168.00
2019-05-10T09:33:41.011Z,26528.00
2019-05-10T09:34:38.213Z,26240.00
2019-05-10T09:35:39.078Z,25824.00
2019-05-10T09:36:38.175Z,26560.00
2019-05-10T09:37:37.136Z,27744.00
2019-05-10T09:38:39.194Z,29696.00
2019-05-10T09:39:37.108Z,32128.00
2019-05-10T09:40:42.450Z,35072.00
2019-05-10T09:41:38.437Z,38944.00
2019-05-10T09:42:40.073Z,45248.00
2019-05-10T09:43:40.515Z,90368.00
2019-05-10T09:44:38.048Z,71840.00
2019-05-10T09:45:37.068Z,52768.00
2019-05-10T09:46:37.083Z,69952.00
2019-05-10T09:47:37.046Z,69664.00
2019-05-10T09:48:37.003Z,62528.00
2019-05-10T09:49:37.097Z,33568.00
2019-05-10T09:50:44.055Z,24576.00
2019-05-10T09:51:38.036Z,19584.00
2019-05-10T09:52:36.964Z,16128.00
2019-05-10T09:53:38.357Z,13472.00
2019-05-10T09:54:38.085Z,13824.00
2019-05-10T09:55:37.027Z,15392.00
2019-05-10T09:56:42.092Z,15704.00
2019-05-10T09:57:38.142Z,15308.00
2019-05-10T09:58:38.638Z,14724.00
2019-05-10T09:59:36.987Z,15404.00
2019-05-10T10:00:37.895Z,16704.00
2019-05-10T10:01:37.188Z,17216.00
2019-05-10T10:02:37.307Z,16960.00
2019-05-10T10:03:43.234Z,16020.00
2019-05-10T10:04:37.831Z,15552.00
2019-05-10T10:05:39.789Z,14656.00
2019-05-10T10:06:37.049Z,13148.00
2019-05-10T10:07:37.348Z,11956.00
2019-05-10T10:08:38.403Z,11972.00
2019-05-10T10:09:42.490Z,12224.00
2019-05-10T10:10:37.858Z,11652.00
2019-05-10T10:11:36.767Z,11140.00
2019-05-10T10:12:37.435Z,10668.00
2019-05-10T10:13:40.806Z,11240.00
2019-05-10T10:14:40.750Z,11488.00
2019-05-10T10:15:37.712Z,10852.00
2019-05-10T10:16:36.693Z,11884.00
2019-05-10T10:17:41.993Z,13352.00
2019-05-10T10:18:37.693Z,14820.00
2019-05-10T10:19:40.245Z,15972.00
2019-05-10T10:20:43.486Z,17632.00
2019-05-10T10:21:38.924Z,19072.00
2019-05-10T10:22:38.096Z,20160.00
2019-05-10T10:23:37.774Z,21536.00
2019-05-10T10:24:40.475Z,19328.00
2019-05-10T10:25:40.490Z,18560.00
2019-05-10T10:26:37.992Z,17824.00
2019-05-10T10:27:39.278Z,16864.00
2019-05-10T10:28:39.502Z,16288.00
2019-05-10T10:29:38.740Z,15428.00
2019-05-10T10:30:37.337Z,15240.00
2019-05-10T10:31:48.351Z,15284.00
2019-05-10T10:32:37.710Z,15468.00
2019-05-10T10:33:37.924Z,15892.00
2019-05-10T10:34:38.732Z,17152.00
2019-05-10T10:35:38.072Z,19584.00
2019-05-10T10:36:40.361Z,20704.00
2019-05-10T10:37:38.089Z,23264.00
2019-05-10T10:38:45.075Z,21856.00
2019-05-10T10:39:37.454Z,20832.00
2019-05-10T10:40:44.069Z,20608.00
2019-05-10T10:41:37.449Z,24288.00
2019-05-10T10:42:38.058Z,22240.00
2019-05-10T10:43:37.005Z,24256.00
2019-05-10T10:44:37.119Z,25184.00
2019-05-10T10:45:37.673Z,27328.00
2019-05-10T10:46:36.387Z,29120.00
2019-05-10T10:47:38.102Z,29856.00
2019-05-10T10:48:37.016Z,30464.00
2019-05-10T10:49:37.785Z,30848.00
2019-05-10T10:50:36.333Z,33184.00
2019-05-10T10:51:37.994Z,38592.00
2019-05-10T10:52:38.180Z,35584.00
2019-05-10T10:53:36.330Z,32480.00
2019-05-10T10:54:39.216Z,24032.00
2019-05-10T10:55:39.354Z,19104.00
2019-05-10T10:56:37.421Z,20160.00
2019-05-10T10:57:54.357Z,22080.00
2019-05-10T10:58:36.236Z,24160.00
2019-05-10T10:59:37.390Z,25824.00
2019-05-10T11:00:38.954Z,25216.00
2019-05-10T11:01:49.256Z,23520.00
2019-05-10T11:02:37.232Z,23040.00
2019-05-10T11:03:36.201Z,23072.00
2019-05-10T11:04:40.712Z,23296.00
2019-05-10T11:05:37.150Z,22784.00
2019-05-10T11:06:36.144Z,24192.00
2019-05-10T11:07:38.792Z,27296.00
2019-05-10T11:08:37.123Z,31104.00
2019-05-10T11:09:36.114Z,35648.00
2019-05-10T11:10:36.125Z,39520.00
2019-05-10T11:11:44.217Z,43968.00
2019-05-10T11:12:37.095Z,59168.00
2019-05-10T11:13:44.059Z,85344.00
2019-05-10T11:14:40.201Z,90752.00
2019-05-10T11:15:37.084Z,44768.00
2019-05-10T11:16:36.053Z,42368.00
2019-05-10T11:17:36.049Z,39744.00
2019-05-10T11:18:36.021Z,37312.00
2019-05-10T11:19:36.009Z,38912.00
2019-05-10T11:20:36.029Z,39296.00
2019-05-10T11:21:36.006Z,36992.00
2019-05-10T11:22:41.970Z,40576.00
2019-05-10T11:23:39.158Z,34400.00
2019-05-10T11:24:35.958Z,33088.00
2019-05-10T11:25:35.936Z,31840.00
2019-05-10T11:26:37.074Z,31808.00
2019-05-10T11:27:35.941Z,32608.00
2019-05-10T11:28:43.537Z,35072.00
2019-05-10T11:29:36.895Z,41536.00
2019-05-10T11:30:35.897Z,65536.00
2019-05-10T11:31:35.904Z,74368.00
2019-05-10T11:32:35.881Z,63584.00
2019-05-10T11:33:35.868Z,52384.00
2019-05-10T11:34:37.821Z,48000.00
2019-05-10T11:35:35.839Z,64384.00
2019-05-10T11:36:40.532Z,49440.00
2019-05-10T11:37:36.820Z,46624.00
2019-05-10T11:38:35.809Z,51104.00
2019-05-10T11:39:42.114Z,45856.00
2019-05-10T11:40:36.777Z,36000.00
2019-05-10T11:41:35.764Z,35488.00
2019-05-10T11:42:37.341Z,31648.00
2019-05-10T11:43:36.772Z,29344.00
2019-05-10T11:44:35.755Z,27936.00
2019-05-10T11:45:36.750Z,27552.00
2019-05-10T11:46:35.710Z,25408.00
2019-05-10T11:47:35.716Z,24736.00
2019-05-10T11:48:37.309Z,24416.00
2019-05-10T11:49:35.694Z,24192.00
2019-05-10T11:50:35.919Z,23936.00
2019-05-10T11:51:35.678Z,23488.00
2019-05-10T11:52:36.594Z,23456.00
2019-05-10T11:53:35.647Z,24224.00
2019-05-10T11:54:35.638Z,26208.00
2019-05-10T11:55:39.583Z,30368.00
2019-05-10T11:56:35.616Z,38688.00
2019-05-10T11:57:35.632Z,62176.00
2019-05-10T11:58:37.585Z,75872.00
2019-05-10T11:59:39.183Z,65600.00
2019-05-10T12:00:35.559Z,77184.00
2019-05-10T12:01:35.562Z,97664.00
2019-05-10T12:02:41.860Z,59552.00
2019-05-10T12:03:36.530Z,70784.00
2019-05-10T12:04:39.228Z,92384.00
2019-05-10T12:05:36.523Z,101792.00
2019-05-10T12:06:41.270Z,52960.00
2019-05-10T12:07:45.507Z,37088.00
2019-05-10T12:08:36.500Z,87040.00
2019-05-10T12:09:35.514Z,86112.00
2019-05-10T12:10:35.459Z,110848.00
2019-05-10T12:11:43.821Z,56896.00
2019-05-10T12:12:53.852Z,61504.00
2019-05-10T12:13:36.453Z,60000.00
2019-05-10T12:14:35.450Z,76640.00